sensor_id;sensor_type;location;lat;lon;timestamp;P1;durP1;ratioP1;P2;durP2;ratioP2
45402;SDS011;47427;51.976;5.326;2023-05-21T00:02:09;15.07;;;14.07;;
45402;SDS011;47427;51.976;5.326;2023-05-21T00:05:31;15.35;;;14.10;;
45402;SDS011;47427;51.976;5.326;2023-05-21T00:08:54;15.15;;;13.95;;
45402;SDS011;47427;51.976;5.326;2023-05-21T00:12:15;15.43;;;14.27;;
45402;SDS011;47427;51.976;5.326;2023-05-21T00:15:38;14.68;;;13.50;;
45402;SDS011;47427;51.976;5.326;2023-05-21T00:19:01;14.95;;;14.05;;
45402;SDS011;47427;51.976;5.326;2023-05-21T00:22:23;15.90;;;14.80;;
45402;SDS011;47427;51.976;5.326;2023-05-21T00:25:45;15.50;;;14.20;;
45402;SDS011;47427;51.976;5.326;2023-05-21T00:29:08;14.52;;;13.63;;
45402;SDS011;47427;51.976;5.326;2023-05-21T00:32:30;15.75;;;14.45;;
45402;SDS011;47427;51.976;5.326;2023-05-21T00:35:53;15.38;;;14.43;;
45402;SDS011;47427;51.976;5.326;2023-05-21T00:39:17;15.02;;;14.00;;
45402;SDS011;47427;51.976;5.326;2023-05-21T00:42:39;15.20;;;14.13;;
45402;SDS011;47427;51.976;5.326;2023-05-21T00:46:02;15.27;;;14.18;;
45402;SDS011;47427;51.976;5.326;2023-05-21T00:49:23;15.57;;;14.40;;
45402;SDS011;47427;51.976;5.326;2023-05-21T00:52:46;15.18;;;13.73;;
45402;SDS011;47427;51.976;5.326;2023-05-21T00:56:09;15.98;;;14.50;;
45402;SDS011;47427;51.976;5.326;2023-05-21T00:59:31;14.80;;;13.80;;
45402;SDS011;47427;51.976;5.326;2023-05-21T01:02:54;16.55;;;15.02;;
45402;SDS011;47427;51.976;5.326;2023-05-21T01:06:17;15.10;;;14.02;;
45402;SDS011;47427;51.976;5.326;2023-05-21T01:09:40;16.00;;;14.60;;
45402;SDS011;47427;51.976;5.326;2023-05-21T01:13:04;16.65;;;15.32;;
45402;SDS011;47427;51.976;5.326;2023-05-21T01:16:26;15.77;;;14.77;;
45402;SDS011;47427;51.976;5.326;2023-05-21T01:19:49;15.95;;;14.63;;
45402;SDS011;47427;51.976;5.326;2023-05-21T01:23:14;16.50;;;15.15;;
45402;SDS011;47427;51.976;5.326;2023-05-21T01:26:37;15.45;;;14.52;;
45402;SDS011;47427;51.976;5.326;2023-05-21T01:30:02;15.90;;;14.50;;
45402;SDS011;47427;51.976;5.326;2023-05-21T01:33:46;16.13;;;15.07;;
45402;SDS011;47427;51.976;5.326;2023-05-21T01:41:15;15.95;;;14.90;;
45402;SDS011;47427;51.976;5.326;2023-05-21T01:44:40;15.80;;;14.63;;
45402;SDS011;47427;51.976;5.326;2023-05-21T01:48:03;15.75;;;14.70;;
45402;SDS011;47427;51.976;5.326;2023-05-21T01:51:27;16.52;;;15.38;;
45402;SDS011;47427;51.976;5.326;2023-05-21T01:54:50;16.25;;;15.15;;
45402;SDS011;47427;51.976;5.326;2023-05-21T01:58:15;16.23;;;15.23;;
45402;SDS011;47427;51.976;5.326;2023-05-21T02:01:36;16.70;;;15.50;;
45402;SDS011;47427;51.976;5.326;2023-05-21T02:05:00;17.13;;;15.52;;
45402;SDS011;47427;51.976;5.326;2023-05-21T02:08:42;17.00;;;15.80;;
45402;SDS011;47427;51.976;5.326;2023-05-21T02:12:06;17.30;;;16.00;;
45402;SDS011;47427;51.976;5.326;2023-05-21T02:15:29;16.35;;;15.02;;
45402;SDS011;47427;51.976;5.326;2023-05-21T02:18:54;16.42;;;15.23;;
45402;SDS011;47427;51.976;5.326;2023-05-21T02:22:18;18.00;;;16.55;;
45402;SDS011;47427;51.976;5.326;2023-05-21T02:25:40;17.85;;;16.45;;
45402;SDS011;47427;51.976;5.326;2023-05-21T02:29:03;16.92;;;15.68;;
45402;SDS011;47427;51.976;5.326;2023-05-21T02:32:26;17.90;;;16.60;;
45402;SDS011;47427;51.976;5.326;2023-05-21T02:35:49;17.55;;;16.17;;
45402;SDS011;47427;51.976;5.326;2023-05-21T02:39:12;17.88;;;16.50;;
45402;SDS011;47427;51.976;5.326;2023-05-21T02:42:36;17.67;;;16.40;;
45402;SDS011;47427;51.976;5.326;2023-05-21T02:46:00;18.15;;;16.70;;
45402;SDS011;47427;51.976;5.326;2023-05-21T02:49:23;17.23;;;16.02;;
45402;SDS011;47427;51.976;5.326;2023-05-21T02:52:46;18.17;;;16.92;;
45402;SDS011;47427;51.976;5.326;2023-05-21T02:56:08;18.42;;;16.77;;
45402;SDS011;47427;51.976;5.326;2023-05-21T02:59:31;17.20;;;16.08;;
45402;SDS011;47427;51.976;5.326;2023-05-21T03:02:52;17.60;;;16.48;;
45402;SDS011;47427;51.976;5.326;2023-05-21T03:06:16;17.85;;;16.50;;
45402;SDS011;47427;51.976;5.326;2023-05-21T03:09:40;17.23;;;16.00;;
45402;SDS011;47427;51.976;5.326;2023-05-21T03:13:02;18.73;;;16.80;;
45402;SDS011;47427;51.976;5.326;2023-05-21T03:16:27;17.77;;;16.48;;
45402;SDS011;47427;51.976;5.326;2023-05-21T03:19:49;17.92;;;16.75;;
45402;SDS011;47427;51.976;5.326;2023-05-21T03:23:11;17.67;;;16.48;;
45402;SDS011;47427;51.976;5.326;2023-05-21T03:26:35;17.77;;;16.38;;
45402;SDS011;47427;51.976;5.326;2023-05-21T03:29:57;18.42;;;17.20;;
45402;SDS011;47427;51.976;5.326;2023-05-21T03:33:21;18.50;;;16.88;;
45402;SDS011;47427;51.976;5.326;2023-05-21T03:37:02;20.02;;;18.13;;
45402;SDS011;47427;51.976;5.326;2023-05-21T03:40:26;18.95;;;17.65;;
45402;SDS011;47427;51.976;5.326;2023-05-21T03:43:49;19.60;;;18.17;;
45402;SDS011;47427;51.976;5.326;2023-05-21T03:47:14;19.87;;;18.27;;
45402;SDS011;47427;51.976;5.326;2023-05-21T03:50:37;18.85;;;17.55;;
45402;SDS011;47427;51.976;5.326;2023-05-21T03:54:00;20.90;;;18.98;;
45402;SDS011;47427;51.976;5.326;2023-05-21T03:57:23;20.63;;;19.13;;
45402;SDS011;47427;51.976;5.326;2023-05-21T04:00:44;20.67;;;19.17;;
45402;SDS011;47427;51.976;5.326;2023-05-21T04:04:07;21.70;;;19.55;;
45402;SDS011;47427;51.976;5.326;2023-05-21T04:07:29;20.52;;;19.00;;
45402;SDS011;47427;51.976;5.326;2023-05-21T04:10:52;20.48;;;19.10;;
45402;SDS011;47427;51.976;5.326;2023-05-21T04:14:14;20.98;;;19.58;;
45402;SDS011;47427;51.976;5.326;2023-05-21T04:17:36;20.77;;;19.38;;
45402;SDS011;47427;51.976;5.326;2023-05-21T04:20:58;21.63;;;19.55;;
45402;SDS011;47427;51.976;5.326;2023-05-21T04:24:23;20.67;;;19.35;;
45402;SDS011;47427;51.976;5.326;2023-05-21T04:27:54;21.70;;;20.10;;
45402;SDS011;47427;51.976;5.326;2023-05-21T04:31:17;20.70;;;18.92;;
45402;SDS011;47427;51.976;5.326;2023-05-21T04:34:40;21.25;;;19.58;;
45402;SDS011;47427;51.976;5.326;2023-05-21T04:38:02;22.13;;;20.35;;
45402;SDS011;47427;51.976;5.326;2023-05-21T04:41:26;21.02;;;19.48;;
45402;SDS011;47427;51.976;5.326;2023-05-21T04:44:49;20.48;;;19.17;;
45402;SDS011;47427;51.976;5.326;2023-05-21T04:48:11;21.30;;;19.90;;
45402;SDS011;47427;51.976;5.326;2023-05-21T04:51:33;21.17;;;19.77;;
45402;SDS011;47427;51.976;5.326;2023-05-21T04:54:57;22.15;;;20.45;;
45402;SDS011;47427;51.976;5.326;2023-05-21T04:58:38;21.30;;;19.90;;
45402;SDS011;47427;51.976;5.326;2023-05-21T05:02:00;21.33;;;19.88;;
45402;SDS011;47427;51.976;5.326;2023-05-21T05:05:22;21.60;;;20.10;;
45402;SDS011;47427;51.976;5.326;2023-05-21T05:08:45;21.70;;;20.00;;
45402;SDS011;47427;51.976;5.326;2023-05-21T05:12:07;22.10;;;20.40;;
45402;SDS011;47427;51.976;5.326;2023-05-21T05:15:29;22.65;;;20.80;;
45402;SDS011;47427;51.976;5.326;2023-05-21T05:18:52;22.73;;;21.08;;
45402;SDS011;47427;51.976;5.326;2023-05-21T05:22:15;22.63;;;20.75;;
45402;SDS011;47427;51.976;5.326;2023-05-21T05:25:38;22.40;;;20.77;;
45402;SDS011;47427;51.976;5.326;2023-05-21T05:29:02;22.23;;;20.77;;
45402;SDS011;47427;51.976;5.326;2023-05-21T05:32:25;21.77;;;20.02;;
45402;SDS011;47427;51.976;5.326;2023-05-21T05:35:49;21.42;;;20.02;;
45402;SDS011;47427;51.976;5.326;2023-05-21T05:39:11;22.23;;;20.52;;
45402;SDS011;47427;51.976;5.326;2023-05-21T05:42:33;22.27;;;20.35;;
45402;SDS011;47427;51.976;5.326;2023-05-21T05:46:03;22.42;;;20.40;;
45402;SDS011;47427;51.976;5.326;2023-05-21T05:49:25;22.23;;;20.65;;
45402;SDS011;47427;51.976;5.326;2023-05-21T05:52:48;21.20;;;19.70;;
45402;SDS011;47427;51.976;5.326;2023-05-21T05:56:12;22.20;;;20.50;;
45402;SDS011;47427;51.976;5.326;2023-05-21T05:59:35;21.38;;;19.95;;
45402;SDS011;47427;51.976;5.326;2023-05-21T06:02:59;21.73;;;20.20;;
45402;SDS011;47427;51.976;5.326;2023-05-21T06:06:22;20.83;;;19.27;;
45402;SDS011;47427;51.976;5.326;2023-05-21T06:09:43;20.95;;;19.35;;
45402;SDS011;47427;51.976;5.326;2023-05-21T06:13:06;20.73;;;19.33;;
45402;SDS011;47427;51.976;5.326;2023-05-21T06:16:28;22.10;;;20.60;;
45402;SDS011;47427;51.976;5.326;2023-05-21T06:19:53;21.73;;;20.20;;
45402;SDS011;47427;51.976;5.326;2023-05-21T06:27:04;22.10;;;20.38;;
45402;SDS011;47427;51.976;5.326;2023-05-21T06:30:27;22.38;;;20.52;;
45402;SDS011;47427;51.976;5.326;2023-05-21T06:34:09;22.50;;;20.60;;
45402;SDS011;47427;51.976;5.326;2023-05-21T06:37:32;21.98;;;20.00;;
45402;SDS011;47427;51.976;5.326;2023-05-21T06:40:56;21.70;;;20.20;;
45402;SDS011;47427;51.976;5.326;2023-05-21T06:44:36;21.20;;;19.77;;
45402;SDS011;47427;51.976;5.326;2023-05-21T06:48:18;22.13;;;20.33;;
45402;SDS011;47427;51.976;5.326;2023-05-21T06:51:41;21.95;;;20.38;;
45402;SDS011;47427;51.976;5.326;2023-05-21T06:55:06;22.08;;;20.25;;
45402;SDS011;47427;51.976;5.326;2023-05-21T06:58:52;20.88;;;19.35;;
45402;SDS011;47427;51.976;5.326;2023-05-21T07:02:15;20.48;;;18.98;;
45402;SDS011;47427;51.976;5.326;2023-05-21T07:05:38;20.10;;;18.48;;
45402;SDS011;47427;51.976;5.326;2023-05-21T07:09:01;20.50;;;19.05;;
45402;SDS011;47427;51.976;5.326;2023-05-21T07:12:24;20.23;;;18.52;;
45402;SDS011;47427;51.976;5.326;2023-05-21T07:15:47;19.58;;;18.27;;
45402;SDS011;47427;51.976;5.326;2023-05-21T07:19:08;21.42;;;19.73;;
45402;SDS011;47427;51.976;5.326;2023-05-21T07:22:33;21.08;;;19.38;;
45402;SDS011;47427;51.976;5.326;2023-05-21T07:25:58;20.45;;;18.98;;
45402;SDS011;47427;51.976;5.326;2023-05-21T07:29:21;20.15;;;18.55;;
45402;SDS011;47427;51.976;5.326;2023-05-21T07:32:43;20.95;;;19.33;;
45402;SDS011;47427;51.976;5.326;2023-05-21T07:36:06;19.90;;;18.45;;
45402;SDS011;47427;51.976;5.326;2023-05-21T07:39:28;20.20;;;18.70;;
45402;SDS011;47427;51.976;5.326;2023-05-21T07:42:52;19.45;;;18.08;;
45402;SDS011;47427;51.976;5.326;2023-05-21T07:46:17;20.45;;;18.80;;
45402;SDS011;47427;51.976;5.326;2023-05-21T07:53:05;19.67;;;17.95;;
45402;SDS011;47427;51.976;5.326;2023-05-21T07:56:26;19.63;;;18.02;;
45402;SDS011;47427;51.976;5.326;2023-05-21T07:59:50;20.17;;;18.50;;
45402;SDS011;47427;51.976;5.326;2023-05-21T08:03:14;20.73;;;19.02;;
45402;SDS011;47427;51.976;5.326;2023-05-21T08:06:37;20.05;;;18.13;;
45402;SDS011;47427;51.976;5.326;2023-05-21T08:10:19;20.15;;;18.02;;
45402;SDS011;47427;51.976;5.326;2023-05-21T08:13:44;19.98;;;18.45;;
45402;SDS011;47427;51.976;5.326;2023-05-21T08:17:08;20.17;;;18.58;;
45402;SDS011;47427;51.976;5.326;2023-05-21T08:20:32;20.60;;;18.90;;
45402;SDS011;47427;51.976;5.326;2023-05-21T08:23:55;19.65;;;18.15;;
45402;SDS011;47427;51.976;5.326;2023-05-21T08:27:19;20.15;;;18.65;;
45402;SDS011;47427;51.976;5.326;2023-05-21T08:30:42;20.45;;;18.60;;
45402;SDS011;47427;51.976;5.326;2023-05-21T08:34:03;19.70;;;18.30;;
45402;SDS011;47427;51.976;5.326;2023-05-21T08:37:35;18.63;;;17.42;;
45402;SDS011;47427;51.976;5.326;2023-05-21T08:41:10;20.83;;;19.33;;
45402;SDS011;47427;51.976;5.326;2023-05-21T08:44:32;22.45;;;20.65;;
45402;SDS011;47427;51.976;5.326;2023-05-21T08:47:57;20.08;;;18.75;;
45402;SDS011;47427;51.976;5.326;2023-05-21T08:51:24;21.80;;;20.02;;
45402;SDS011;47427;51.976;5.326;2023-05-21T08:54:48;19.73;;;18.35;;
45402;SDS011;47427;51.976;5.326;2023-05-21T08:58:12;20.13;;;18.63;;
45402;SDS011;47427;51.976;5.326;2023-05-21T09:01:36;21.40;;;19.70;;
45402;SDS011;47427;51.976;5.326;2023-05-21T09:05:12;20.15;;;18.38;;
45402;SDS011;47427;51.976;5.326;2023-05-21T09:08:37;19.45;;;18.13;;
45402;SDS011;47427;51.976;5.326;2023-05-21T09:12:16;19.02;;;17.58;;
45402;SDS011;47427;51.976;5.326;2023-05-21T09:15:38;19.75;;;18.25;;
45402;SDS011;47427;51.976;5.326;2023-05-21T09:19:01;19.98;;;18.42;;
45402;SDS011;47427;51.976;5.326;2023-05-21T09:22:27;21.58;;;19.52;;
45402;SDS011;47427;51.976;5.326;2023-05-21T09:25:50;20.88;;;18.92;;
45402;SDS011;47427;51.976;5.326;2023-05-21T09:29:19;20.80;;;19.30;;
45402;SDS011;47427;51.976;5.326;2023-05-21T09:32:41;19.55;;;18.05;;
45402;SDS011;47427;51.976;5.326;2023-05-21T09:36:23;21.67;;;20.08;;
45402;SDS011;47427;51.976;5.326;2023-05-21T09:39:47;21.38;;;19.77;;
45402;SDS011;47427;51.976;5.326;2023-05-21T09:43:12;20.48;;;19.02;;
45402;SDS011;47427;51.976;5.326;2023-05-21T09:46:37;20.25;;;18.75;;
45402;SDS011;47427;51.976;5.326;2023-05-21T09:50:02;19.60;;;18.13;;
45402;SDS011;47427;51.976;5.326;2023-05-21T09:53:24;20.42;;;18.98;;
45402;SDS011;47427;51.976;5.326;2023-05-21T09:56:52;20.77;;;19.27;;
45402;SDS011;47427;51.976;5.326;2023-05-21T10:00:21;20.85;;;18.83;;
45402;SDS011;47427;51.976;5.326;2023-05-21T10:03:46;21.20;;;19.38;;
45402;SDS011;47427;51.976;5.326;2023-05-21T10:07:17;20.42;;;18.88;;
45402;SDS011;47427;51.976;5.326;2023-05-21T10:10:46;20.50;;;19.10;;
45402;SDS011;47427;51.976;5.326;2023-05-21T10:14:28;20.33;;;18.50;;
45402;SDS011;47427;51.976;5.326;2023-05-21T10:17:54;20.63;;;19.17;;
45402;SDS011;47427;51.976;5.326;2023-05-21T10:21:18;19.63;;;18.03;;
45402;SDS011;47427;51.976;5.326;2023-05-21T10:24:42;19.55;;;18.23;;
45402;SDS011;47427;51.976;5.326;2023-05-21T10:28:06;18.80;;;17.60;;
45402;SDS011;47427;51.976;5.326;2023-05-21T10:31:29;20.45;;;18.88;;
45402;SDS011;47427;51.976;5.326;2023-05-21T10:34:53;19.30;;;18.00;;
45402;SDS011;47427;51.976;5.326;2023-05-21T10:38:17;20.25;;;18.67;;
45402;SDS011;47427;51.976;5.326;2023-05-21T10:42:04;19.77;;;18.33;;
45402;SDS011;47427;51.976;5.326;2023-05-21T10:46:09;21.33;;;19.38;;
45402;SDS011;47427;51.976;5.326;2023-05-21T11:01:15;19.60;;;18.17;;
45402;SDS011;47427;51.976;5.326;2023-05-21T11:04:39;19.58;;;18.17;;
45402;SDS011;47427;51.976;5.326;2023-05-21T11:08:04;19.92;;;17.70;;
45402;SDS011;47427;51.976;5.326;2023-05-21T11:11:38;18.95;;;17.50;;
45402;SDS011;47427;51.976;5.326;2023-05-21T11:15:10;19.27;;;17.75;;
45402;SDS011;47427;51.976;5.326;2023-05-21T11:21:58;23.10;;;21.08;;
45402;SDS011;47427;51.976;5.326;2023-05-21T11:25:21;21.00;;;19.63;;
45402;SDS011;47427;51.976;5.326;2023-05-21T11:28:44;21.30;;;19.98;;
45402;SDS011;47427;51.976;5.326;2023-05-21T11:32:07;20.73;;;19.25;;
45402;SDS011;47427;51.976;5.326;2023-05-21T11:35:30;21.70;;;19.98;;
45402;SDS011;47427;51.976;5.326;2023-05-21T11:39:12;20.60;;;19.20;;
45402;SDS011;47427;51.976;5.326;2023-05-21T11:42:49;20.80;;;19.23;;
45402;SDS011;47427;51.976;5.326;2023-05-21T11:46:12;20.45;;;19.20;;
45402;SDS011;47427;51.976;5.326;2023-05-21T11:49:36;21.63;;;20.02;;
45402;SDS011;47427;51.976;5.326;2023-05-21T11:53:00;20.60;;;19.38;;
45402;SDS011;47427;51.976;5.326;2023-05-21T11:56:21;20.58;;;19.17;;
45402;SDS011;47427;51.976;5.326;2023-05-21T11:59:45;20.30;;;18.67;;
45402;SDS011;47427;51.976;5.326;2023-05-21T12:03:33;22.17;;;20.38;;
45402;SDS011;47427;51.976;5.326;2023-05-21T12:06:56;20.77;;;19.50;;
45402;SDS011;47427;51.976;5.326;2023-05-21T12:10:20;21.15;;;19.60;;
45402;SDS011;47427;51.976;5.326;2023-05-21T12:13:42;22.92;;;20.75;;
45402;SDS011;47427;51.976;5.326;2023-05-21T12:17:05;21.70;;;20.30;;
45402;SDS011;47427;51.976;5.326;2023-05-21T12:20:30;20.20;;;19.00;;
45402;SDS011;47427;51.976;5.326;2023-05-21T12:23:52;20.85;;;19.35;;
45402;SDS011;47427;51.976;5.326;2023-05-21T12:27:36;21.38;;;19.63;;
45402;SDS011;47427;51.976;5.326;2023-05-21T12:30:58;22.05;;;20.45;;
45402;SDS011;47427;51.976;5.326;2023-05-21T12:38:17;21.20;;;19.58;;
45402;SDS011;47427;51.976;5.326;2023-05-21T12:41:40;55.00;;;21.05;;
45402;SDS011;47427;51.976;5.326;2023-05-21T12:45:06;20.02;;;18.35;;
45402;SDS011;47427;51.976;5.326;2023-05-21T12:48:30;20.05;;;18.75;;
45402;SDS011;47427;51.976;5.326;2023-05-21T12:51:55;21.08;;;19.55;;
45402;SDS011;47427;51.976;5.326;2023-05-21T12:55:16;22.42;;;20.80;;
45402;SDS011;47427;51.976;5.326;2023-05-21T12:58:38;21.95;;;20.08;;
45402;SDS011;47427;51.976;5.326;2023-05-21T13:02:01;21.98;;;20.30;;
45402;SDS011;47427;51.976;5.326;2023-05-21T13:05:22;21.95;;;20.35;;
45402;SDS011;47427;51.976;5.326;2023-05-21T13:08:45;20.48;;;18.98;;
45402;SDS011;47427;51.976;5.326;2023-05-21T13:12:08;22.45;;;20.85;;
45402;SDS011;47427;51.976;5.326;2023-05-21T13:15:29;22.70;;;20.90;;
45402;SDS011;47427;51.976;5.326;2023-05-21T13:18:52;22.00;;;20.40;;
45402;SDS011;47427;51.976;5.326;2023-05-21T13:22:14;22.83;;;20.88;;
45402;SDS011;47427;51.976;5.326;2023-05-21T13:25:37;21.30;;;19.52;;
45402;SDS011;47427;51.976;5.326;2023-05-21T13:29:00;21.92;;;20.48;;
45402;SDS011;47427;51.976;5.326;2023-05-21T13:32:21;21.70;;;20.27;;
45402;SDS011;47427;51.976;5.326;2023-05-21T13:35:43;23.08;;;21.20;;
45402;SDS011;47427;51.976;5.326;2023-05-21T13:39:06;22.25;;;20.65;;
45402;SDS011;47427;51.976;5.326;2023-05-21T13:42:28;21.45;;;19.75;;
45402;SDS011;47427;51.976;5.326;2023-05-21T13:45:51;23.50;;;21.58;;
45402;SDS011;47427;51.976;5.326;2023-05-21T13:49:32;22.95;;;21.17;;
45402;SDS011;47427;51.976;5.326;2023-05-21T13:52:55;23.67;;;21.73;;
45402;SDS011;47427;51.976;5.326;2023-05-21T13:56:18;22.92;;;21.23;;
45402;SDS011;47427;51.976;5.326;2023-05-21T13:59:41;21.98;;;20.38;;
45402;SDS011;47427;51.976;5.326;2023-05-21T14:03:04;22.88;;;21.38;;
45402;SDS011;47427;51.976;5.326;2023-05-21T14:06:29;22.58;;;20.67;;
45402;SDS011;47427;51.976;5.326;2023-05-21T14:09:51;22.52;;;20.73;;
45402;SDS011;47427;51.976;5.326;2023-05-21T14:13:14;20.40;;;18.60;;
45402;SDS011;47427;51.976;5.326;2023-05-21T14:16:36;20.48;;;18.95;;
45402;SDS011;47427;51.976;5.326;2023-05-21T14:19:57;20.48;;;18.98;;
45402;SDS011;47427;51.976;5.326;2023-05-21T14:23:20;20.73;;;19.08;;
45402;SDS011;47427;51.976;5.326;2023-05-21T14:26:42;21.85;;;20.02;;
45402;SDS011;47427;51.976;5.326;2023-05-21T14:30:05;20.98;;;19.30;;
45402;SDS011;47427;51.976;5.326;2023-05-21T14:33:29;20.80;;;19.35;;
45402;SDS011;47427;51.976;5.326;2023-05-21T14:36:52;20.40;;;18.63;;
45402;SDS011;47427;51.976;5.326;2023-05-21T14:40:15;20.05;;;18.58;;
45402;SDS011;47427;51.976;5.326;2023-05-21T14:43:36;19.13;;;17.55;;
45402;SDS011;47427;51.976;5.326;2023-05-21T14:46:59;20.40;;;18.60;;
45402;SDS011;47427;51.976;5.326;2023-05-21T14:50:22;19.60;;;17.83;;
45402;SDS011;47427;51.976;5.326;2023-05-21T14:53:43;19.95;;;18.40;;
45402;SDS011;47427;51.976;5.326;2023-05-21T14:57:06;18.48;;;17.17;;
45402;SDS011;47427;51.976;5.326;2023-05-21T15:00:29;18.42;;;17.13;;
45402;SDS011;47427;51.976;5.326;2023-05-21T15:03:51;19.50;;;18.02;;
45402;SDS011;47427;51.976;5.326;2023-05-21T15:07:14;19.63;;;17.92;;
45402;SDS011;47427;51.976;5.326;2023-05-21T15:10:37;19.33;;;18.02;;
45402;SDS011;47427;51.976;5.326;2023-05-21T15:13:58;19.67;;;17.98;;
45402;SDS011;47427;51.976;5.326;2023-05-21T15:17:21;20.73;;;18.98;;
45402;SDS011;47427;51.976;5.326;2023-05-21T15:20:42;21.00;;;19.27;;
45402;SDS011;47427;51.976;5.326;2023-05-21T15:24:05;19.48;;;17.83;;
45402;SDS011;47427;51.976;5.326;2023-05-21T15:27:28;18.55;;;17.02;;
45402;SDS011;47427;51.976;5.326;2023-05-21T15:30:49;18.80;;;17.40;;
45402;SDS011;47427;51.976;5.326;2023-05-21T15:34:12;20.35;;;18.65;;
45402;SDS011;47427;51.976;5.326;2023-05-21T15:37:54;19.88;;;17.55;;
45402;SDS011;47427;51.976;5.326;2023-05-21T15:41:17;18.95;;;17.33;;
45402;SDS011;47427;51.976;5.326;2023-05-21T15:44:40;18.63;;;17.02;;
45402;SDS011;47427;51.976;5.326;2023-05-21T15:48:03;18.50;;;16.70;;
45402;SDS011;47427;51.976;5.326;2023-05-21T15:51:26;19.52;;;17.77;;
45402;SDS011;47427;51.976;5.326;2023-05-21T15:54:49;19.52;;;17.75;;
45402;SDS011;47427;51.976;5.326;2023-05-21T15:58:10;19.48;;;17.73;;
45402;SDS011;47427;51.976;5.326;2023-05-21T16:01:33;18.85;;;17.00;;
45402;SDS011;47427;51.976;5.326;2023-05-21T16:04:56;19.23;;;17.45;;
45402;SDS011;47427;51.976;5.326;2023-05-21T16:08:17;18.83;;;17.30;;
45402;SDS011;47427;51.976;5.326;2023-05-21T16:11:40;18.02;;;16.42;;
45402;SDS011;47427;51.976;5.326;2023-05-21T16:15:04;17.35;;;16.05;;
45402;SDS011;47427;51.976;5.326;2023-05-21T16:18:28;18.40;;;17.10;;
45402;SDS011;47427;51.976;5.326;2023-05-21T16:21:50;18.75;;;17.27;;
45402;SDS011;47427;51.976;5.326;2023-05-21T16:25:12;19.65;;;17.75;;
45402;SDS011;47427;51.976;5.326;2023-05-21T16:28:35;19.95;;;17.77;;
45402;SDS011;47427;51.976;5.326;2023-05-21T16:31:58;19.45;;;17.55;;
45402;SDS011;47427;51.976;5.326;2023-05-21T16:35:19;20.00;;;18.10;;
45402;SDS011;47427;51.976;5.326;2023-05-21T16:38:42;20.05;;;18.35;;
45402;SDS011;47427;51.976;5.326;2023-05-21T16:42:05;19.92;;;18.20;;
45402;SDS011;47427;51.976;5.326;2023-05-21T16:45:30;19.77;;;18.23;;
45402;SDS011;47427;51.976;5.326;2023-05-21T16:49:06;20.33;;;18.67;;
45402;SDS011;47427;51.976;5.326;2023-05-21T16:52:28;19.58;;;18.08;;
45402;SDS011;47427;51.976;5.326;2023-05-21T16:55:50;20.88;;;18.85;;
45402;SDS011;47427;51.976;5.326;2023-05-21T16:59:13;21.10;;;19.02;;
45402;SDS011;47427;51.976;5.326;2023-05-21T17:02:36;21.23;;;19.17;;
45402;SDS011;47427;51.976;5.326;2023-05-21T17:05:59;21.17;;;19.20;;
45402;SDS011;47427;51.976;5.326;2023-05-21T17:09:21;21.20;;;19.08;;
45402;SDS011;47427;51.976;5.326;2023-05-21T17:12:43;21.52;;;19.33;;
45402;SDS011;47427;51.976;5.326;2023-05-21T17:16:06;22.05;;;20.15;;
45402;SDS011;47427;51.976;5.326;2023-05-21T17:19:27;20.77;;;19.10;;
45402;SDS011;47427;51.976;5.326;2023-05-21T17:22:50;21.67;;;19.80;;
45402;SDS011;47427;51.976;5.326;2023-05-21T17:26:31;21.80;;;19.77;;
45402;SDS011;47427;51.976;5.326;2023-05-21T17:29:53;21.85;;;20.15;;
45402;SDS011;47427;51.976;5.326;2023-05-21T17:33:16;21.08;;;19.35;;
45402;SDS011;47427;51.976;5.326;2023-05-21T17:36:38;22.23;;;20.17;;
45402;SDS011;47427;51.976;5.326;2023-05-21T17:40:01;20.52;;;18.77;;
45402;SDS011;47427;51.976;5.326;2023-05-21T17:43:25;21.50;;;19.75;;
45402;SDS011;47427;51.976;5.326;2023-05-21T17:46:47;21.95;;;20.05;;
45402;SDS011;47427;51.976;5.326;2023-05-21T17:50:11;20.85;;;18.90;;
45402;SDS011;47427;51.976;5.326;2023-05-21T17:53:33;29.30;;;19.92;;
45402;SDS011;47427;51.976;5.326;2023-05-21T17:56:56;21.23;;;19.35;;
45402;SDS011;47427;51.976;5.326;2023-05-21T18:00:19;21.10;;;19.30;;
45402;SDS011;47427;51.976;5.326;2023-05-21T18:03:41;21.42;;;19.58;;
45402;SDS011;47427;51.976;5.326;2023-05-21T18:07:04;20.83;;;19.23;;
45402;SDS011;47427;51.976;5.326;2023-05-21T18:10:28;22.15;;;20.30;;
45402;SDS011;47427;51.976;5.326;2023-05-21T18:13:50;22.05;;;20.33;;
45402;SDS011;47427;51.976;5.326;2023-05-21T18:17:14;21.27;;;19.15;;
45402;SDS011;47427;51.976;5.326;2023-05-21T18:20:37;20.63;;;18.88;;
45402;SDS011;47427;51.976;5.326;2023-05-21T18:23:58;21.25;;;19.55;;
45402;SDS011;47427;51.976;5.326;2023-05-21T18:27:21;20.55;;;19.00;;
45402;SDS011;47427;51.976;5.326;2023-05-21T18:30:42;21.08;;;19.58;;
45402;SDS011;47427;51.976;5.326;2023-05-21T18:34:05;20.35;;;18.88;;
45402;SDS011;47427;51.976;5.326;2023-05-21T18:37:28;21.40;;;19.67;;
45402;SDS011;47427;51.976;5.326;2023-05-21T18:40:49;22.42;;;20.42;;
45402;SDS011;47427;51.976;5.326;2023-05-21T18:44:12;24.90;;;22.33;;
45402;SDS011;47427;51.976;5.326;2023-05-21T18:47:35;24.95;;;21.08;;
45402;SDS011;47427;51.976;5.326;2023-05-21T18:50:58;23.70;;;21.55;;
45402;SDS011;47427;51.976;5.326;2023-05-21T18:54:21;23.42;;;21.42;;
45402;SDS011;47427;51.976;5.326;2023-05-21T18:57:42;24.05;;;21.98;;
45402;SDS011;47427;51.976;5.326;2023-05-21T19:01:07;24.55;;;22.13;;
45402;SDS011;47427;51.976;5.326;2023-05-21T19:04:29;24.40;;;22.00;;
45402;SDS011;47427;51.976;5.326;2023-05-21T19:07:51;23.35;;;21.20;;
45402;SDS011;47427;51.976;5.326;2023-05-21T19:11:14;23.90;;;21.73;;
45402;SDS011;47427;51.976;5.326;2023-05-21T19:14:56;25.10;;;22.25;;
45402;SDS011;47427;51.976;5.326;2023-05-21T19:18:19;25.08;;;22.85;;
45402;SDS011;47427;51.976;5.326;2023-05-21T19:21:42;31.98;;;22.85;;
45402;SDS011;47427;51.976;5.326;2023-05-21T19:25:03;25.80;;;23.27;;
45402;SDS011;47427;51.976;5.326;2023-05-21T19:28:27;27.55;;;24.67;;
45402;SDS011;47427;51.976;5.326;2023-05-21T19:31:51;25.80;;;23.55;;
45402;SDS011;47427;51.976;5.326;2023-05-21T19:35:17;25.98;;;23.50;;
45402;SDS011;47427;51.976;5.326;2023-05-21T19:38:47;27.20;;;23.92;;
45402;SDS011;47427;51.976;5.326;2023-05-21T19:42:09;26.02;;;23.55;;
45402;SDS011;47427;51.976;5.326;2023-05-21T19:45:32;26.95;;;24.23;;
45402;SDS011;47427;51.976;5.326;2023-05-21T19:48:55;26.83;;;24.17;;
45402;SDS011;47427;51.976;5.326;2023-05-21T19:52:16;26.55;;;24.05;;
45402;SDS011;47427;51.976;5.326;2023-05-21T19:55:58;29.77;;;23.80;;
45402;SDS011;47427;51.976;5.326;2023-05-21T19:59:19;26.10;;;23.63;;
45402;SDS011;47427;51.976;5.326;2023-05-21T20:02:47;27.02;;;24.58;;
45402;SDS011;47427;51.976;5.326;2023-05-21T20:06:10;26.25;;;23.70;;
45402;SDS011;47427;51.976;5.326;2023-05-21T20:09:31;28.27;;;25.67;;
45402;SDS011;47427;51.976;5.326;2023-05-21T20:12:54;28.02;;;25.27;;
45402;SDS011;47427;51.976;5.326;2023-05-21T20:16:17;29.33;;;26.52;;
45402;SDS011;47427;51.976;5.326;2023-05-21T20:19:39;29.10;;;26.45;;
45402;SDS011;47427;51.976;5.326;2023-05-21T20:23:02;30.35;;;27.35;;
45402;SDS011;47427;51.976;5.326;2023-05-21T20:26:25;31.27;;;28.13;;